Time;durP1;ratioP1;P1;durP2;ratioP2;P2;SDS_P1;SDS_P2;PMS_P1;PMS_P2;Temp;Humidity;BMP_temperature;BMP_pressure;BME280_temperature;BME280_humidity;BME280_pressure;Samples;Min_cycle;Max_cycle;Signal;HPM_P1;HPM_P2
2022/08/28 00:00:11;;;;;;;3.78;1.98;;;21.60;99.60;;;;;;4915011;29;20024;-80
2022/08/28 00:02:37;;;;;;;3.45;2.13;;;21.60;99.40;;;;;;4914961;29;20047;-80
2022/08/28 00:05:05;;;;;;;4.78;2.10;;;21.60;99.50;;;;;;4915091;29;20100;-80
2022/08/28 00:07:30;;;;;;;4.78;2.10;;;21.60;99.50;;;;;;4914954;29;20028;-80
2022/08/28 00:09:56;;;;;;;3.17;1.90;;;21.60;99.40;;;;;;4914772;29;20056;-80
2022/08/28 00:12:21;;;;;;;4.22;1.98;;;21.60;99.40;;;;;;4914542;29;20032;-80
2022/08/28 00:14:47;;;;;;;8.32;2.00;;;21.50;99.30;;;;;;4914824;29;20032;-80
2022/08/28 00:17:13;;;;;;;1.90;1.70;;;21.50;99.30;;;;;;4914702;29;20036;-80
2022/08/28 00:19:38;;;;;;;4.68;1.98;;;21.50;99.30;;;;;;4914292;29;20043;-80
2022/08/28 00:22:06;;;;;;;3.60;2.10;;;21.50;99.30;;;;;;4894608;29;20020;-80
2022/08/28 00:24:32;;;;;;;3.25;2.00;;;21.40;99.20;;;;;;4914598;29;20060;-80
2022/08/28 00:29:43;;;;;;;3.00;1.73;;;21.40;99.50;;;;;;4914688;29;20031;-80
2022/08/28 00:32:08;;;;;;;3.78;2.03;;;21.40;99.50;;;;;;4914310;29;20071;-80
2022/08/28 00:34:34;;;;;;;3.72;2.00;;;21.30;99.60;;;;;;4914336;29;20465;-80
2022/08/28 00:37:00;;;;;;;2.15;1.73;;;21.30;99.60;;;;;;4914427;29;20028;-80
2022/08/28 00:39:26;;;;;;;7.13;2.10;;;21.30;99.80;;;;;;4914186;29;20449;-80
2022/08/28 00:41:52;;;;;;;3.35;2.17;;;21.30;99.70;;;;;;4914426;29;20100;-80
2022/08/28 00:44:22;;;;;;;4.07;1.80;;;21.30;99.80;;;;;;4914809;29;20115;-80
2022/08/28 00:46:50;;;;;;;3.70;1.83;;;21.20;99.80;;;;;;4914253;29;20021;-80
2022/08/28 00:49:19;;;;;;;2.85;2.05;;;21.20;99.80;;;;;;4914438;29;20034;-80
2022/08/28 00:52:06;;;;;;;3.40;2.30;;;21.10;99.90;;;;;;4914250;29;20012;-80
2022/08/28 00:54:37;;;;;;;4.50;1.90;;;21.20;99.90;;;;;;4914122;29;20032;-80
2022/08/28 00:57:06;;;;;;;4.28;1.80;;;21.10;99.90;;;;;;4908366;29;20042;-80
2022/08/28 00:59:32;;;;;;;3.83;1.90;;;21.00;99.90;;;;;;4914153;29;20032;-80
2022/08/28 01:01:58;;;;;;;3.15;1.90;;;21.00;99.90;;;;;;4914154;29;20020;-80
2022/08/28 01:04:28;;;;;;;4.30;1.75;;;21.00;99.90;;;;;;4914181;29;20107;-80
2022/08/28 01:06:56;;;;;;;2.58;1.60;;;21.00;99.90;;;;;;4908937;29;20548;-80
2022/08/28 01:09:25;;;;;;;2.90;1.85;;;21.00;99.90;;;;;;4914141;29;20076;-80
2022/08/28 01:11:56;;;;;;;2.60;1.90;;;21.00;99.90;;;;;;4914022;29;20024;-80
2022/08/28 01:14:23;;;;;;;6.75;1.92;;;21.00;99.90;;;;;;4913946;29;20482;-80
2022/08/28 01:16:54;;;;;;;5.35;2.08;;;20.90;99.90;;;;;;4913813;29;20079;-80
2022/08/28 01:19:30;;;;;;;3.97;1.80;;;20.90;99.90;;;;;;4913621;29;20034;-80
2022/08/28 01:22:14;;;;;;;4.03;2.00;;;20.90;99.90;;;;;;4913948;29;20501;-80
2022/08/28 01:24:40;;;;;;;7.07;2.00;;;20.80;99.90;;;;;;4913947;29;20119;-81
2022/08/28 01:27:06;;;;;;;3.05;1.80;;;20.80;99.90;;;;;;4913922;29;20123;-80
2022/08/28 01:29:32;;;;;;;5.95;1.92;;;20.80;99.90;;;;;;4913941;29;20521;-80
2022/08/28 01:31:58;;;;;;;4.35;1.80;;;20.80;99.90;;;;;;4915832;29;20024;-80
2022/08/28 01:34:24;;;;;;;5.32;1.88;;;20.70;99.90;;;;;;4917439;29;20043;-80
2022/08/28 01:36:49;;;;;;;2.63;1.90;;;20.80;99.90;;;;;;4917607;29;20060;-80
2022/08/28 01:39:19;;;;;;;3.15;1.70;;;20.70;99.90;;;;;;4917150;29;20032;-80
2022/08/28 01:41:47;;;;;;;3.47;1.80;;;20.80;99.90;;;;;;4917494;29;20498;-80
2022/08/28 01:44:15;;;;;;;4.22;2.00;;;20.70;99.90;;;;;;4917641;29;20040;-80
2022/08/28 01:46:42;;;;;;;3.40;1.83;;;20.70;99.90;;;;;;4917515;29;20107;-80
2022/08/28 01:49:10;;;;;;;3.90;1.95;;;20.70;99.90;;;;;;4917500;29;20057;-80
2022/08/28 01:51:40;;;;;;;3.13;1.77;;;20.60;99.90;;;;;;4917342;29;20024;-80
2022/08/28 01:54:06;;;;;;;2.88;1.90;;;20.50;99.90;;;;;;4917236;29;20497;-80
2022/08/28 01:56:32;;;;;;;3.03;1.95;;;20.50;99.90;;;;;;4917088;29;20035;-80
2022/08/28 01:59:01;;;;;;;3.33;1.70;;;20.50;99.90;;;;;;4917161;29;20032;-80
2022/08/28 02:01:26;;;;;;;4.65;1.92;;;20.50;99.90;;;;;;4917025;29;20028;-80
2022/08/28 02:03:52;;;;;;;3.72;1.70;;;20.40;99.90;;;;;;4917239;29;20035;-80
2022/08/28 02:06:18;;;;;;;3.22;1.85;;;20.50;99.90;;;;;;4917288;29;20025;-80
2022/08/28 02:08:45;;;;;;;4.10;1.95;;;20.50;99.90;;;;;;4917010;29;20032;-80
2022/08/28 02:11:12;;;;;;;3.50;2.10;;;20.50;99.90;;;;;;4917019;29;20035;-79
2022/08/28 02:13:38;;;;;;;4.53;2.10;;;20.40;99.90;;;;;;4917037;29;20148;-80
2022/08/28 02:16:06;;;;;;;2.72;1.80;;;20.40;99.90;;;;;;4912412;29;20042;-80
2022/08/28 02:18:32;;;;;;;2.83;1.92;;;20.40;99.90;;;;;;4916819;29;20021;-80
2022/08/28 02:20:58;;;;;;;3.58;2.00;;;20.40;99.90;;;;;;4916915;29;20031;-80
2022/08/28 02:23:23;;;;;;;4.53;2.35;;;20.40;99.90;;;;;;4916881;29;20051;-80
2022/08/28 02:25:49;;;;;;;5.35;1.90;;;20.40;99.90;;;;;;4897575;29;20487;-80
2022/08/28 02:28:15;;;;;;;5.68;1.75;;;20.40;99.90;;;;;;4917061;29;20020;-79
2022/08/28 02:30:41;;;;;;;4.75;1.70;;;20.40;99.90;;;;;;4916786;29;20032;-80
2022/08/28 02:33:07;;;;;;;5.97;1.88;;;20.30;99.90;;;;;;4910692;29;20119;-80
2022/08/28 02:35:33;;;;;;;5.40;1.83;;;20.40;99.90;;;;;;4916707;29;20130;-80
2022/08/28 02:37:58;;;;;;;3.17;1.73;;;20.40;99.90;;;;;;4916630;29;20103;-80
2022/08/28 02:40:24;;;;;;;2.58;1.67;;;20.30;99.90;;;;;;4916369;29;20363;-80
2022/08/28 02:42:51;;;;;;;3.80;1.77;;;20.30;99.90;;;;;;4915974;29;20119;-81
2022/08/28 02:45:17;;;;;;;3.80;2.08;;;20.30;99.90;;;;;;4916527;29;20039;-80
2022/08/28 02:47:43;;;;;;;2.60;1.70;;;20.20;99.90;;;;;;4916599;29;20078;-80
2022/08/28 02:50:11;;;;;;;3.95;1.88;;;20.20;99.90;;;;;;4916590;29;20280;-80
2022/08/28 02:52:37;;;;;;;5.07;1.70;;;20.20;99.90;;;;;;4916428;29;20020;-81
2022/08/28 02:55:08;;;;;;;3.08;1.73;;;20.20;99.90;;;;;;4916584;29;20028;-81
2022/08/28 02:57:34;;;;;;;3.78;1.67;;;20.20;99.90;;;;;;4916377;29;20048;-80
2022/08/28 03:00:00;;;;;;;3.33;1.80;;;20.20;99.90;;;;;;4916143;29;20067;-81
2022/08/28 03:02:26;;;;;;;3.70;1.63;;;20.20;99.90;;;;;;4916098;29;20080;-81
2022/08/28 03:04:51;;;;;;;2.20;1.58;;;20.20;99.90;;;;;;4916337;29;20020;-80
2022/08/28 03:07:18;;;;;;;4.63;1.63;;;20.10;99.90;;;;;;4916134;29;20094;-80
2022/08/28 03:09:44;;;;;;;3.45;1.70;;;20.10;99.90;;;;;;4915848;29;20038;-80
2022/08/28 03:12:12;;;;;;;3.50;1.60;;;20.10;99.90;;;;;;4916381;29;20397;-80
2022/08/28 03:14:38;;;;;;;8.55;1.90;;;20.10;99.90;;;;;;4916105;29;20020;-81
2022/08/28 03:17:06;;;;;;;5.05;1.60;;;20.10;99.90;;;;;;4915846;29;20032;-81
2022/08/28 03:19:32;;;;;;;1.75;1.48;;;20.10;99.90;;;;;;4915839;29;20021;-80
2022/08/28 03:21:57;;;;;;;5.75;1.75;;;20.10;99.90;;;;;;4915861;29;20032;-81
2022/08/28 03:24:23;;;;;;;4.70;1.80;;;20.00;99.90;;;;;;4915525;29;20096;-80
2022/08/28 03:26:49;;;;;;;5.25;1.90;;;20.00;99.90;;;;;;4915485;29;20059;-80
2022/08/28 03:29:14;;;;;;;4.85;1.65;;;20.00;99.90;;;;;;4915791;29;20028;-80
2022/08/28 03:31:40;;;;;;;3.58;1.48;;;19.90;99.90;;;;;;4915807;29;20036;-80
2022/08/28 03:34:06;;;;;;;3.88;1.50;;;19.90;99.90;;;;;;4915601;29;20047;-81
2022/08/28 03:36:32;;;;;;;3.55;1.55;;;20.00;99.90;;;;;;4915699;29;20032;-80
2022/08/28 03:39:00;;;;;;;2.63;1.50;;;20.00;99.90;;;;;;4915305;29;20035;-80
2022/08/28 03:41:28;;;;;;;5.28;1.80;;;20.00;99.90;;;;;;4915193;29;20046;-81
2022/08/28 03:43:58;;;;;;;5.25;1.67;;;20.00;99.90;;;;;;4915160;29;20118;-81
2022/08/28 03:46:25;;;;;;;3.47;1.60;;;19.90;99.90;;;;;;4898296;29;20024;-81
2022/08/28 03:48:52;;;;;;;3.05;1.70;;;19.90;99.90;;;;;;4915203;29;20029;-81
2022/08/28 03:51:21;;;;;;;3.97;1.88;;;19.90;99.90;;;;;;4915798;29;20064;-80
2022/08/28 03:53:47;;;;;;;3.10;1.60;;;19.80;99.90;;;;;;4914448;29;20173;-81
2022/08/28 03:56:23;;;;;;;3.80;1.60;;;19.80;99.90;;;;;;4915047;29;20513;-81
2022/08/28 03:58:52;;;;;;;4.00;1.58;;;19.80;99.90;;;;;;4915221;29;20039;-81
2022/08/28 04:01:19;;;;;;;4.53;1.55;;;19.80;99.90;;;;;;4914932;29;20028;-81
2022/08/28 04:03:45;;;;;;;5.72;1.70;;;19.80;99.90;;;;;;4915051;29;20020;-80
2022/08/28 04:06:11;;;;;;;3.22;1.80;;;19.90;99.90;;;;;;4914965;29;20051;-80
2022/08/28 04:08:37;;;;;;;2.38;1.50;;;19.90;99.90;;;;;;4914667;29;20024;-80
2022/08/28 04:11:04;;;;;;;3.58;1.58;;;19.80;99.90;;;;;;4914954;29;20040;-80
2022/08/28 04:13:30;;;;;;;2.25;1.40;;;19.80;99.90;;;;;;4915119;29;20064;-80
2022/08/28 04:16:02;;;;;;;3.45;1.67;;;19.80;99.90;;;;;;4914858;29;20020;-80
2022/08/28 04:18:29;;;;;;;4.68;1.77;;;19.80;99.90;;;;;;4914787;29;20367;-80
2022/08/28 04:21:06;;;;;;;2.75;1.63;;;19.80;99.90;;;;;;4914596;29;20151;-80
2022/08/28 04:23:33;;;;;;;3.03;1.60;;;19.70;99.90;;;;;;4914513;29;20055;-81
2022/08/28 04:25:59;;;;;;;4.38;1.40;;;19.70;99.90;;;;;;4914563;29;20036;-80
2022/08/28 04:28:26;;;;;;;3.47;1.83;;;19.70;99.90;;;;;;4914619;29;20485;-80
2022/08/28 04:30:53;;;;;;;4.22;2.20;;;19.60;99.90;;;;;;4914517;29;20028;-80
2022/08/28 04:33:20;;;;;;;3.45;1.60;;;19.60;99.90;;;;;;4914568;29;20527;-81
2022/08/28 04:35:46;;;;;;;3.55;1.52;;;19.60;99.90;;;;;;4914453;29;20035;-80
2022/08/28 04:38:12;;;;;;;4.05;1.90;;;19.50;99.90;;;;;;4914487;29;20036;-80
2022/08/28 04:40:39;;;;;;;4.82;1.27;;;19.50;99.90;;;;;;4914140;29;20028;-80
2022/08/28 04:43:06;;;;;;;3.25;1.60;;;19.50;99.90;;;;;;4914124;29;20024;-80
2022/08/28 04:45:31;;;;;;;2.40;1.42;;;19.50;99.90;;;;;;4914114;29;20035;-81
2022/08/28 04:47:57;;;;;;;4.68;1.83;;;19.50;99.90;;;;;;4913950;29;20020;-80
2022/08/28 04:50:24;;;;;;;5.20;1.92;;;19.40;99.90;;;;;;4914176;29;20492;-80
2022/08/28 04:52:50;;;;;;;3.50;1.85;;;19.30;99.90;;;;;;4914316;29;20364;-80
2022/08/28 04:55:16;;;;;;;4.10;1.58;;;19.30;99.90;;;;;;4914303;29;20075;-80
2022/08/28 04:57:41;;;;;;;3.50;1.60;;;19.30;99.90;;;;;;4914100;29;20031;-80
2022/08/28 05:00:09;;;;;;;2.13;1.38;;;19.30;99.90;;;;;;4914029;29;20060;-80
2022/08/28 05:02:34;;;;;;;2.55;1.70;;;19.30;99.90;;;;;;4913982;29;20133;-80
2022/08/28 05:05:01;;;;;;;2.70;1.50;;;19.40;99.90;;;;;;4914056;29;20024;-80
2022/08/28 05:07:26;;;;;;;3.00;1.63;;;19.30;99.90;;;;;;4914375;29;20043;-80
2022/08/28 05:09:53;;;;;;;3.63;1.80;;;19.30;99.90;;;;;;4913999;29;20020;-80
2022/08/28 05:12:19;;;;;;;3.72;1.48;;;19.30;99.90;;;;;;4914018;29;20382;-80
2022/08/28 05:14:44;;;;;;;2.58;1.48;;;19.40;99.90;;;;;;4915151;29;20035;-81
2022/08/28 05:17:13;;;;;;;4.93;1.63;;;19.40;99.90;;;;;;4915603;29;20039;-80
2022/08/28 05:19:39;;;;;;;3.25;1.90;;;19.30;99.90;;;;;;4916354;29;20027;-81
2022/08/28 05:22:05;;;;;;;4.18;1.83;;;19.30;99.90;;;;;;4913651;29;20031;-81
2022/08/28 05:24:30;;;;;;;8.13;1.90;;;19.30;99.90;;;;;;4916393;29;20028;-81
2022/08/28 05:26:56;;;;;;;5.93;1.50;;;19.30;99.90;;;;;;4904671;29;20115;-80
2022/08/28 05:29:22;;;;;;;3.05;1.60;;;19.30;99.90;;;;;;4913871;29;20024;-81
2022/08/28 05:31:48;;;;;;;2.83;1.60;;;19.20;99.90;;;;;;4890602;29;20036;-80
2022/08/28 05:34:15;;;;;;;3.38;1.63;;;19.20;99.90;;;;;;4914162;29;20117;-80
2022/08/28 05:36:41;;;;;;;3.90;1.75;;;19.20;99.90;;;;;;4895930;29;20383;-81
2022/08/28 05:39:09;;;;;;;6.03;1.63;;;19.20;99.90;;;;;;4913445;29;20029;-80
2022/08/28 05:41:37;;;;;;;3.60;1.77;;;19.20;99.90;;;;;;4913668;29;20023;-81
2022/08/28 05:44:06;;;;;;;3.22;1.50;;;19.20;99.90;;;;;;4913626;29;20024;-81
2022/08/28 05:46:32;;;;;;;5.28;1.58;;;19.20;99.90;;;;;;4914035;29;20024;-80
2022/08/28 05:48:59;;;;;;;5.28;1.50;;;19.30;99.90;;;;;;4917198;29;20036;-81
2022/08/28 05:51:25;;;;;;;4.65;1.48;;;19.20;99.90;;;;;;4917053;29;20020;-80
2022/08/28 05:53:52;;;;;;;3.15;1.50;;;19.20;99.90;;;;;;4924391;29;20032;-81
2022/08/28 05:56:24;;;;;;;9.55;1.85;;;19.20;99.90;;;;;;4920948;29;20036;-81
2022/08/28 05:58:50;;;;;;;2.47;1.48;;;19.30;99.90;;;;;;4913382;29;20497;-81
2022/08/28 06:01:18;;;;;;;6.68;1.35;;;19.20;99.90;;;;;;4914865;29;20032;-81
2022/08/28 06:03:58;;;;;;;4.72;1.70;;;19.30;99.90;;;;;;4916932;29;20049;-80
2022/08/28 06:06:25;;;;;;;4.00;1.40;;;19.30;99.90;;;;;;4896631;29;20059;-80
2022/08/28 06:08:58;;;;;;;4.20;1.45;;;19.30;99.90;;;;;;4913865;29;20028;-80
2022/08/28 06:11:24;;;;;;;5.18;1.63;;;19.40;99.90;;;;;;4915869;29;20059;-80
2022/08/28 06:13:50;;;;;;;3.03;1.40;;;19.50;99.90;;;;;;4913224;29;20409;-80
2022/08/28 06:16:16;;;;;;;2.63;1.33;;;19.40;99.90;;;;;;4913178;29;20036;-80
2022/08/28 06:18:41;;;;;;;4.05;1.60;;;19.50;99.90;;;;;;4916273;29;20028;-80
2022/08/28 06:21:07;;;;;;;4.68;1.85;;;19.50;99.90;;;;;;4916970;29;20116;-80
2022/08/28 06:23:33;;;;;;;2.03;1.45;;;19.60;99.90;;;;;;4916646;29;20416;-80
2022/08/28 06:25:59;;;;;;;4.18;1.70;;;19.60;99.90;;;;;;4916871;29;20083;-80
2022/08/28 06:28:26;;;;;;;3.47;1.38;;;19.60;99.90;;;;;;4916933;29;20032;-80
2022/08/28 06:30:54;;;;;;;2.40;1.70;;;19.60;99.90;;;;;;4917117;29;20107;-80
2022/08/28 06:33:20;;;;;;;5.20;1.50;;;19.60;99.90;;;;;;4916175;29;20103;-81
2022/08/28 06:35:48;;;;;;;3.58;1.40;;;19.60;99.90;;;;;;4917038;29;20441;-80
2022/08/28 06:38:16;;;;;;;3.38;1.52;;;19.70;99.90;;;;;;4916322;29;20031;-80
2022/08/28 06:40:44;;;;;;;4.28;1.55;;;19.80;99.90;;;;;;4916446;29;20043;-82
2022/08/28 06:43:15;;;;;;;5.00;1.40;;;20.00;99.90;;;;;;4916458;29;20035;-82
2022/08/28 06:45:42;;;;;;;5.88;1.77;;;20.00;99.90;;;;;;4917965;29;20024;-82
2022/08/28 06:48:10;;;;;;;3.08;1.25;;;20.10;99.90;;;;;;4916385;29;20516;-81
2022/08/28 06:50:44;;;;;;;5.03;1.52;;;20.20;99.90;;;;;;4916039;29;20553;-81
2022/08/28 06:53:13;;;;;;;3.75;1.30;;;20.30;99.90;;;;;;4915728;29;20048;-81
2022/08/28 06:55:39;;;;;;;2.80;1.40;;;20.30;99.90;;;;;;4916022;29;20421;-81
2022/08/28 06:58:05;;;;;;;3.33;1.25;;;20.40;99.90;;;;;;4916235;29;20040;-81
2022/08/28 07:00:32;;;;;;;4.40;1.40;;;20.40;99.90;;;;;;4916088;29;20017;-81
2022/08/28 07:02:58;;;;;;;4.93;1.35;;;20.50;99.90;;;;;;4916196;29;20380;-81
2022/08/28 07:05:24;;;;;;;2.30;1.10;;;20.60;99.90;;;;;;4916182;29;20110;-81
2022/08/28 07:07:50;;;;;;;3.78;1.50;;;20.70;99.90;;;;;;4916318;29;20024;-81
2022/08/28 07:10:16;;;;;;;3.28;1.27;;;20.80;99.80;;;;;;4915820;29;20102;-81
2022/08/28 07:12:42;;;;;;;4.32;1.58;;;20.90;99.90;;;;;;4915775;29;20034;-81
2022/08/28 07:15:08;;;;;;;4.88;1.33;;;21.00;99.50;;;;;;4915898;29;20114;-81
2022/08/28 07:17:34;;;;;;;3.58;1.20;;;21.10;99.50;;;;;;4915710;29;20087;-81
2022/08/28 07:20:01;;;;;;;2.92;1.33;;;21.20;99.40;;;;;;4896291;29;20040;-81
2022/08/28 07:22:27;;;;;;;6.25;1.10;;;21.30;99.40;;;;;;4915881;29;20059;-81
2022/08/28 07:24:53;;;;;;;3.25;1.20;;;21.40;99.30;;;;;;4915689;29;20066;-81
2022/08/28 07:27:21;;;;;;;2.63;1.17;;;21.50;99.30;;;;;;4915607;29;20066;-81
2022/08/28 07:29:46;;;;;;;4.40;1.25;;;21.60;99.10;;;;;;4908836;29;20032;-82
2022/08/28 07:32:12;;;;;;;3.55;1.20;;;21.70;99.00;;;;;;4915548;29;20032;-81
2022/08/28 07:34:39;;;;;;;1.48;1.13;;;21.70;99.00;;;;;;4915230;29;20549;-81
2022/08/28 07:37:06;;;;;;;3.17;1.20;;;21.80;98.80;;;;;;4915432;29;20021;-81
2022/08/28 07:39:33;;;;;;;4.20;1.25;;;21.90;98.70;;;;;;4915168;29;20538;-81
2022/08/28 07:41:59;;;;;;;5.68;1.70;;;22.00;98.40;;;;;;4915431;29;20024;-81
2022/08/28 07:47:10;;;;;;;3.28;1.13;;;22.10;98.20;;;;;;4910243;29;20095;-81
2022/08/28 07:49:37;;;;;;;3.15;1.02;;;22.30;98.20;;;;;;4915456;29;20035;-81
2022/08/28 07:52:04;;;;;;;4.90;1.20;;;22.40;98.00;;;;;;4915358;29;20135;-81
2022/08/28 07:54:29;;;;;;;3.08;1.10;;;22.50;97.70;;;;;;4914771;29;20405;-81
2022/08/28 07:56:55;;;;;;;2.85;0.90;;;22.60;97.40;;;;;;4915324;29;20020;-81
2022/08/28 07:59:21;;;;;;;3.10;1.00;;;22.70;97.20;;;;;;4915029;29;20036;-81
2022/08/28 08:01:49;;;;;;;3.75;1.30;;;22.80;97.50;;;;;;4913817;29;20479;-81
2022/08/28 08:04:16;;;;;;;3.97;1.08;;;22.80;97.30;;;;;;4915326;29;20063;-81
2022/08/28 08:06:42;;;;;;;2.95;1.08;;;23.00;97.30;;;;;;4915236;29;20574;-81
2022/08/28 08:09:11;;;;;;;4.05;1.40;;;23.10;96.80;;;;;;4914970;29;20028;-81
2022/08/28 08:11:37;;;;;;;3.60;1.15;;;23.20;96.40;;;;;;4914967;29;20481;-81
2022/08/28 08:14:04;;;;;;;3.65;1.15;;;23.30;96.30;;;;;;4914675;29;20067;-81
2022/08/28 08:16:33;;;;;;;2.92;0.98;;;23.40;96.00;;;;;;4914871;29;20036;-81
2022/08/28 08:18:59;;;;;;;1.75;1.15;;;23.50;96.10;;;;;;4914645;29;20625;-81
2022/08/28 08:21:26;;;;;;;5.97;1.20;;;23.60;95.80;;;;;;4914659;29;20481;-81
2022/08/28 08:23:52;;;;;;;4.40;1.00;;;23.70;95.40;;;;;;4914601;29;20036;-82
2022/08/28 08:26:20;;;;;;;4.63;1.08;;;23.80;95.10;;;;;;4914636;29;20121;-82
2022/08/28 08:28:47;;;;;;;5.80;1.20;;;23.80;95.00;;;;;;4914540;29;20043;-81
2022/08/28 08:31:31;;;;;;;2.85;0.98;;;23.90;94.90;;;;;;4914589;29;20017;-82
2022/08/28 08:34:02;;;;;;;3.30;1.03;;;24.00;95.00;;;;;;4908869;29;20292;-83
2022/08/28 08:36:29;;;;;;;2.88;1.00;;;24.10;94.90;;;;;;4914442;29;20020;-83
2022/08/28 08:38:56;;;;;;;4.20;1.33;;;24.20;94.60;;;;;;4893280;29;20029;-83
2022/08/28 08:41:48;;;;;;;3.58;0.90;;;24.30;94.40;;;;;;4914265;29;20031;-83
2022/08/28 08:44:41;;;;;;;2.83;0.90;;;24.30;94.20;;;;;;4914439;29;20036;-83
2022/08/28 08:47:09;;;;;;;2.08;1.20;;;24.40;94.10;;;;;;4909003;29;20024;-83
2022/08/28 08:49:39;;;;;;;3.22;1.10;;;24.40;94.10;;;;;;4914410;29;20516;-83
2022/08/28 08:52:24;;;;;;;3.55;1.17;;;24.50;94.20;;;;;;4897335;29;20056;-83
2022/08/28 08:55:05;;;;;;;;;;;24.60;94.00;;;;;;4896986;29;20378;-83
2022/08/28 08:57:32;;;;;;;6.80;2.67;;;24.70;93.80;;;;;;4913999;29;20315;-83
2022/08/28 08:59:58;;;;;;;8.45;4.28;;;24.80;93.80;;;;;;4914106;29;20024;-84
2022/08/28 09:02:31;;;;;;;12.52;6.40;;;25.00;93.70;;;;;;4912727;29;20036;-84
2022/08/28 09:05:03;;;;;;;7.75;3.97;;;25.10;93.60;;;;;;4914299;29;20024;-84
2022/08/28 09:07:55;;;;;;;6.93;2.45;;;25.20;93.10;;;;;;4914123;29;20024;-84
2022/08/28 09:10:22;;;;;;;9.65;3.97;;;25.30;92.70;;;;;;4910607;29;20040;-84
2022/08/28 09:13:10;;;;;;;8.25;2.17;;;25.40;93.00;;;;;;4914003;29;20175;-84
2022/08/28 09:15:40;;;;;;;5.55;2.35;;;25.50;92.70;;;;;;4914131;29;20028;-83
2022/08/28 09:18:22;;;;;;;8.98;3.70;;;25.60;92.50;;;;;;4913984;29;20067;-83
2022/08/28 09:20:53;;;;;;;3.72;1.48;;;25.70;92.30;;;;;;4910971;29;20079;-83
2022/08/28 09:23:21;;;;;;;3.22;1.15;;;25.90;92.20;;;;;;4914198;29;20094;-83
2022/08/28 09:25:49;;;;;;;4.38;1.00;;;26.00;92.00;;;;;;4913978;29;20079;-84
2022/08/28 09:28:28;;;;;;;3.55;1.13;;;26.00;92.20;;;;;;4914226;29;20152;-83
2022/08/28 09:31:15;;;;;;;4.07;1.10;;;26.10;91.90;;;;;;4913863;29;20489;-83
2022/08/28 09:33:47;;;;;;;7.25;1.20;;;26.30;91.70;;;;;;4914002;29;20296;-84
2022/08/28 09:36:27;;;;;;;2.20;1.33;;;26.40;91.60;;;;;;4896732;29;20115;-83
2022/08/28 09:39:08;;;;;;;2.00;1.10;;;26.50;91.30;;;;;;4907862;29;20084;-84
2022/08/28 09:45:20;;;;;;;1.98;1.00;;;26.60;91.10;;;;;;4873363;29;20025;-84
2022/08/28 09:47:47;;;;;;;3.92;1.50;;;26.70;91.00;;;;;;4873396;29;20491;-84
2022/08/28 09:50:38;;;;;;;3.65;1.17;;;26.70;91.10;;;;;;4896691;29;20127;-84
2022/08/28 09:53:10;;;;;;;3.80;0.93;;;26.70;90.70;;;;;;4898084;29;20524;-84
2022/08/28 09:55:54;;;;;;;2.35;1.00;;;26.80;90.70;;;;;;4917406;29;20158;-84
2022/08/28 09:58:22;;;;;;;2.75;1.20;;;26.90;90.70;;;;;;4917099;29;20034;-84
2022/08/28 10:00:57;;;;;;;5.30;1.30;;;26.90;90.60;;;;;;4915654;29;20087;-84
2022/08/28 10:03:35;;;;;;;2.97;1.30;;;26.90;90.50;;;;;;4917140;29;20114;-83
2022/08/28 10:06:09;;;;;;;3.92;1.48;;;27.00;90.90;;;;;;4917030;29;20031;-83
2022/08/28 10:09:17;;;;;;;4.53;1.30;;;27.10;90.20;;;;;;4916775;29;20035;-82
2022/08/28 10:11:57;;;;;;;4.15;1.60;;;27.30;90.00;;;;;;4839844;29;20030;-82
2022/08/28 10:14:38;;;;;;;2.97;1.92;;;27.30;89.00;;;;;;4905906;29;20076;-82
2022/08/28 10:17:41;;;;;;;6.57;2.40;;;27.40;90.10;;;;;;4916687;29;20038;-82
2022/08/28 10:20:09;;;;;;;4.38;2.40;;;27.50;89.80;;;;;;4912228;29;20052;-83
2022/08/28 10:22:52;;;;;;;5.78;3.47;;;27.50;89.10;;;;;;4895169;29;20033;-82
2022/08/28 10:25:57;;;;;;;4.65;3.83;;;27.60;88.30;;;;;;4916782;29;20032;-83
2022/08/28 10:28:39;;;;;;;3.42;0.98;;;27.60;88.40;;;;;;4822026;29;20045;-82
2022/08/28 10:31:40;;;;;;;4.63;1.00;;;27.80;87.10;;;;;;4907274;29;20043;-82
2022/08/28 10:34:39;;;;;;;3.53;1.10;;;27.80;86.80;;;;;;4873559;29;20099;-82
2022/08/28 10:37:23;;;;;;;5.25;1.30;;;28.00;86.30;;;;;;4916666;29;20028;-82
2022/08/28 10:39:57;;;;;;;4.25;1.42;;;28.00;86.40;;;;;;4916267;29;20029;-82
2022/08/28 10:42:31;;;;;;;3.03;0.95;;;28.00;85.90;;;;;;4916857;29;20036;-82
2022/08/28 10:45:04;;;;;;;2.25;1.13;;;28.10;85.90;;;;;;4916309;29;20444;-82
2022/08/28 10:47:34;;;;;;;2.50;1.20;;;28.10;86.10;;;;;;4916575;29;20036;-86
2022/08/28 10:50:07;;;;;;;4.30;1.35;;;28.30;86.50;;;;;;4900596;29;20024;-85
2022/08/28 10:52:44;;;;;;;4.93;0.93;;;28.50;86.40;;;;;;4920798;29;20020;-85
2022/08/28 10:55:25;;;;;;;6.35;1.90;;;28.70;85.70;;;;;;4920441;29;20028;-84
2022/08/28 10:58:01;;;;;;;5.13;1.92;;;28.70;85.00;;;;;;4916184;29;20411;-84
2022/08/28 11:00:27;;;;;;;5.72;1.52;;;28.80;85.50;;;;;;4914629;29;20051;-84
2022/08/28 11:02:58;;;;;;;6.63;1.75;;;28.80;85.50;;;;;;4915916;29;20039;-84
2022/08/28 11:05:30;;;;;;;2.60;1.00;;;28.90;84.70;;;;;;4916228;29;20152;-84
2022/08/28 11:08:04;;;;;;;5.85;1.23;;;28.90;84.20;;;;;;4916061;29;20083;-85
2022/08/28 11:10:33;;;;;;;;;;;28.90;84.10;;;;;;4916572;29;20024;-84
2022/08/28 11:13:00;;;;;;;3.13;1.13;;;29.00;84.00;;;;;;4915928;29;20489;-84
2022/08/28 11:15:25;;;;;;;4.25;1.52;;;29.10;83.90;;;;;;4915794;29;20462;-84
2022/08/28 11:17:52;;;;;;;3.92;1.30;;;29.30;84.20;;;;;;4916048;29;20107;-84
2022/08/28 11:20:28;;;;;;;6.20;1.75;;;29.50;83.20;;;;;;4918473;29;20504;-84
2022/08/28 11:23:09;;;;;;;2.75;1.73;;;29.80;82.90;;;;;;4915742;29;20016;-84
2022/08/28 11:25:42;;;;;;;1.77;1.27;;;29.90;82.10;;;;;;4915968;29;20062;-85
2022/08/28 11:28:23;;;;;;;2.90;1.38;;;30.00;81.90;;;;;;4915785;29;20051;-84
2022/08/28 11:31:01;;;;;;;2.70;1.40;;;30.00;81.30;;;;;;4915467;29;20020;-84
2022/08/28 11:33:39;;;;;;;2.53;1.10;;;30.00;81.50;;;;;;4915316;29;20042;-85
2022/08/28 11:36:18;;;;;;;1.80;1.10;;;30.10;81.50;;;;;;4913280;29;20020;-84
2022/08/28 11:38:43;;;;;;;3.67;1.13;;;30.20;81.20;;;;;;4895718;29;20086;-85
2022/08/28 11:41:32;;;;;;;2.33;1.00;;;30.50;80.70;;;;;;4897019;29;20028;-84
2022/08/28 11:44:04;;;;;;;2.25;1.23;;;30.60;80.10;;;;;;4915158;29;20465;-84
2022/08/28 11:46:35;;;;;;;2.40;1.20;;;30.80;80.40;;;;;;4915536;29;20071;-84
2022/08/28 11:49:21;;;;;;;3.92;1.20;;;30.90;79.20;;;;;;4898118;29;20016;-84
2022/08/28 11:52:30;;;;;;;4.05;1.15;;;31.10;78.90;;;;;;4915435;29;20028;-84
2022/08/28 11:55:08;;;;;;;1.83;1.10;;;31.20;77.80;;;;;;4897910;29;20032;-84
2022/08/28 11:57:49;;;;;;;3.40;1.17;;;31.30;78.30;;;;;;4914977;29;20028;-84
2022/08/28 12:00:27;;;;;;;4.68;1.00;;;31.20;78.30;;;;;;4911204;29;20024;-85
2022/08/28 12:03:13;;;;;;;2.97;1.20;;;31.20;77.60;;;;;;4910373;29;20039;-84
2022/08/28 12:05:43;;;;;;;2.72;1.00;;;31.10;77.60;;;;;;4914954;29;20400;-84
2022/08/28 12:08:10;;;;;;;1.40;0.95;;;30.90;77.10;;;;;;4915110;29;20187;-85
2022/08/28 12:10:50;;;;;;;5.20;1.30;;;30.90;77.10;;;;;;4914913;29;20063;-85
2022/08/28 12:13:49;;;;;;;2.55;1.10;;;30.90;77.10;;;;;;4914893;29;20039;-85
2022/08/28 12:16:15;;;;;;;2.22;1.20;;;30.90;77.00;;;;;;4906672;29;20060;-85
2022/08/28 12:18:58;;;;;;;3.20;0.98;;;31.00;76.90;;;;;;4914684;29;20032;-85
2022/08/28 12:21:26;;;;;;;3.40;1.13;;;31.20;76.90;;;;;;4914808;29;20024;-85
2022/08/28 12:23:57;;;;;;;5.22;1.17;;;31.40;76.20;;;;;;4914453;29;20564;-85
2022/08/28 12:26:34;;;;;;;2.67;1.00;;;31.50;75.80;;;;;;4914846;29;20131;-84
2022/08/28 12:29:30;;;;;;;2.88;0.98;;;31.60;75.70;;;;;;4915248;29;20028;-84
2022/08/28 12:32:14;;;;;;;4.10;1.08;;;31.80;75.10;;;;;;4912163;29;20095;-85
2022/08/28 12:34:58;;;;;;;4.47;1.23;;;31.90;73.70;;;;;;4914434;29;20066;-85
2022/08/28 12:37:45;;;;;;;5.22;1.33;;;31.80;74.20;;;;;;4909961;29;20500;-85
2022/08/28 12:40:20;;;;;;;1.83;1.05;;;31.70;74.90;;;;;;4912050;29;20028;-85
2022/08/28 12:42:50;;;;;;;1.38;0.90;;;31.80;73.90;;;;;;4914115;29;20091;-85
2022/08/28 12:45:21;;;;;;;2.67;0.90;;;32.00;73.60;;;;;;4894449;29;20206;-84
2022/08/28 12:47:50;;;;;;;1.92;0.90;;;32.00;72.50;;;;;;4914576;29;20394;-85
2022/08/28 12:50:30;;;;;;;2.55;0.90;;;31.90;72.80;;;;;;4914542;29;20028;-84
2022/08/28 12:52:59;;;;;;;2.45;0.90;;;32.00;73.00;;;;;;4914024;29;20044;-84
2022/08/28 12:55:26;;;;;;;3.88;1.08;;;32.00;72.80;;;;;;4914308;29;20079;-84
2022/08/28 12:57:52;;;;;;;1.45;0.90;;;32.10;72.20;;;;;;4914288;29;20115;-84
2022/08/28 13:00:22;;;;;;;1.58;0.95;;;32.40;72.20;;;;;;4914197;29;20025;-84
2022/08/28 13:02:49;;;;;;;4.90;1.08;;;32.80;71.20;;;;;;4916091;29;20024;-84
2022/08/28 13:05:33;;;;;;;4.00;0.80;;;33.00;71.30;;;;;;4918316;29;20020;-85
2022/08/28 13:08:03;;;;;;;;;;;33.10;70.60;;;;;;4914564;29;20035;-84
2022/08/28 13:10:35;;;;;;;3.10;0.95;;;33.10;70.20;;;;;;4914146;29;19911;-84
2022/08/28 13:13:06;;;;;;;2.30;0.90;;;33.10;70.20;;;;;;4914165;29;20490;-84